Celebrity Mercury — 9HJG9 — position and weather

sailwx.info

Track history (hours):
 
Tides and Currents Weather Stations Pressure Air Temp Water Temp Dewpoint Dewpoint Depression Visibility Wind Speed Wind Dir Waves Ship Positions

Celebrity Mercury

Last reported at 2020-Aug-09 19:34 UTC. Time now 2020-Aug-10 02:31 UTC.
Position N 28°30' W 016°10'.

Length 264 m; draft 8.5 m.

Type: Passenger vessel. MMSI: 249053000.

Date/timePositionNaut miles runAvg speedWind from/ knotsBaromVisibWave heightAir tempDewpointWater temp
2020-Aug-09 19:34N 28°30' W 016°10'0 0.0
2020-Aug-09 09:05N 28°30' W 016°10'0 0.0
2020-Aug-09 07:24N 28°30' W 016°10'0 0.1
2020-Aug-09 07:00N 28°30' W 016°10'0 0.0
2020-Aug-09 05:16N 28°30' W 016°10'0 0.0
2020-Aug-09 04:27N 28°30' W 016°10'0 0.0
2020-Aug-08 23:19N 28°30' W 016°10'0 0.0
2020-Aug-08 21:25N 28°30' W 016°10'0 0.0
2020-Aug-08 17:25N 28°30' W 016°10'0 0.0
2020-Aug-08 14:30N 28°30' W 016°10'0 0.0
2020-Aug-08 12:54N 28°30' W 016°10'0 0.0
2020-Aug-08 10:57N 28°30' W 016°10'0 0.0
2020-Aug-08 08:52N 28°30' W 016°10'0 0.0
2020-Aug-08 07:54N 28°30' W 016°10'0 0.0
2020-Aug-08 04:49N 28°30' W 016°10'0 0.1
2020-Aug-08 03:58N 28°30' W 016°10'0 0.0
2020-Aug-08 02:58N 28°30' W 016°10'0 0.0
2020-Aug-07 23:57N 28°30' W 016°10'0 0.0
2020-Aug-07 22:00N 28°30' W 016°10'0 0.0
2020-Aug-07 19:09N 28°30' W 016°10'4 2.5
2020-Aug-07 17:30N 28°28' W 016°14'0 0.0
2020-Aug-07 16:27N 28°28' W 016°14'0 0.0
2020-Aug-07 13:53N 28°28' W 016°14'0 0.0
2020-Aug-07 12:58N 28°28' W 016°14'0 0.0
2020-Aug-07 12:30N 28°28' W 016°14'0 0.0
2020-Aug-07 10:23N 28°28' W 016°14'0 0.0
2020-Aug-07 09:56N 28°28' W 016°14'2 0.6
2020-Aug-07 06:30N 28°28' W 016°12'8 5.4
2020-Aug-07 05:00N 28°22' W 016°06'2 3.2
2020-Aug-07 04:30N 28°21' W 016°04'1 1.2
2020-Aug-07 04:00N 28°21' W 016°04'1 1.7
2020-Aug-07 03:29N 28°22' W 016°04'12 4.8
2020-Aug-07 01:01N 28°28' W 015°52'11 7.4
2020-Aug-06 23:30N 28°37' W 015°44'10 4.9
2020-Aug-06 21:31N 28°39' W 015°33'10 6.6
2020-Aug-06 20:01N 28°33' W 015°42'25 6.2
2020-Aug-06 16:00N 28°30' W 016°10'0 0.1
2020-Aug-06 13:10N 28°30' W 016°10'0 0.0
2020-Aug-06 05:40N 28°30' W 016°10'0 0.0
2020-Aug-06 04:25N 28°30' W 016°10'0 0.0
2020-Aug-05 19:53N 28°30' W 016°10'0 0.1
2020-Aug-05 19:30N 28°30' W 016°10'0 0.0
2020-Aug-05 12:35N 28°30' W 016°10'0 0.0
2020-Aug-05 09:16N 28°30' W 016°10'0 0.0
2020-Aug-05 04:18N 28°30' W 016°10'0 0.0
2020-Aug-04 22:27N 28°30' W 016°10'0 0.0
2020-Aug-04 20:39N 28°30' W 016°10'0 0.0
2020-Aug-04 19:58N 28°30' W 016°10'0 0.0
2020-Aug-04 10:41N 28°30' W 016°10'0 0.0
2020-Aug-04 09:26N 28°30' W 016°10'0 0.0
2020-Aug-04 04:49N 28°30' W 016°10'0 0.1
2020-Aug-04 03:54N 28°30' W 016°10'0 0.0
2020-Aug-04 02:59N 28°30' W 016°10'0 0.0
2020-Aug-03 17:28N 28°30' W 016°10'0 0.0
2020-Aug-03 15:16N 28°30' W 016°10'0 0.0
2020-Aug-03 12:51N 28°30' W 016°10'0 0.0
2020-Aug-03 10:50N 28°30' W 016°10'0 0.0
2020-Aug-03 09:35N 28°30' W 016°10'0 0.0
2020-Aug-03 06:51N 28°30' W 016°10'0 0.0
2020-Aug-02 17:02N 28°30' W 016°10'0 0.1
2020-Aug-02 16:28N 28°30' W 016°10'0 0.0
2020-Aug-02 13:22N 28°30' W 016°10'0 0.1
2020-Aug-02 12:58N 28°30' W 016°10'0 0.0
2020-Aug-02 12:28N 28°30' W 016°10'0 0.0
2020-Aug-02 10:22N 28°30' W 016°10'0 0.0
2020-Aug-02 09:52N 28°30' W 016°10'0 0.0
2020-Aug-02 06:27N 28°30' W 016°10'0 0.0
2020-Aug-02 03:00N 28°30' W 016°10'0 0.0
2020-Aug-02 01:48N 28°30' W 016°10'0 0.0
2020-Aug-02 00:38N 28°30' W 016°10'0 0.0
2020-Aug-01 15:59N 28°30' W 016°10'0 0.0
2020-Aug-01 13:40N 28°30' W 016°10'0 0.0
2020-Aug-01 11:27N 28°30' W 016°10'0 0.0
2020-Aug-01 09:25N 28°30' W 016°10'0 0.0
2020-Aug-01 05:27N 28°30' W 016°10'0 0.0
2020-Aug-01 02:36N 28°30' W 016°10'0 0.1
2020-Aug-01 02:30N 28°30' W 016°10'0 0.0
2020-Jul-31 21:08N 28°30' W 016°10'0 0.0
2020-Jul-31 17:51N 28°30' W 016°10'0 0.0
2020-Jul-31 11:49N 28°30' W 016°10'0 0.0
2020-Jul-31 09:54N 28°30' W 016°10'0 0.0
2020-Jul-31 06:30N 28°30' W 016°10'0 0.1
2020-Jul-31 06:00N 28°30' W 016°10'0 0.0
2020-Jul-31 04:59N 28°30' W 016°10'0 0.0
2020-Jul-31 03:58N 28°30' W 016°10'0 0.0
2020-Jul-31 00:58N 28°30' W 016°10'0 0.1
2020-Jul-31 00:28N 28°30' W 016°10'0 0.0
2020-Jul-30 22:30N 28°30' W 016°10'0 0.0
2020-Jul-30 21:30N 28°30' W 016°10'0 0.0
2020-Jul-30 20:29N 28°30' W 016°10'  
Track history (hours):
 
Tides and Currents Weather Stations Pressure Air Temp Water Temp Dewpoint Dewpoint Depression Visibility Wind Speed Wind Dir Waves Ship Positions

Celebrity Mercury

Last reported at 2020-Aug-09 19:34 UTC. Time now 2020-Aug-10 02:31 UTC.
Position N 28°30' W 016°10'.

Length 264 m; draft 8.5 m.

Type: Passenger vessel. MMSI: 249053000.

Date/timePositionNaut miles runAvg speedWind from/ knotsBaromVisibWave heightAir tempDewpointWater temp
2020-Aug-09 19:34N 28°30' W 016°10'0 0.0
2020-Aug-09 09:05N 28°30' W 016°10'0 0.0
2020-Aug-09 07:24N 28°30' W 016°10'0 0.1
2020-Aug-09 07:00N 28°30' W 016°10'0 0.0
2020-Aug-09 05:16N 28°30' W 016°10'0 0.0
2020-Aug-09 04:27N 28°30' W 016°10'0 0.0
2020-Aug-08 23:19N 28°30' W 016°10'0 0.0
2020-Aug-08 21:25N 28°30' W 016°10'0 0.0
2020-Aug-08 17:25N 28°30' W 016°10'0 0.0
2020-Aug-08 14:30N 28°30' W 016°10'0 0.0
2020-Aug-08 12:54N 28°30' W 016°10'0 0.0
2020-Aug-08 10:57N 28°30' W 016°10'0 0.0
2020-Aug-08 08:52N 28°30' W 016°10'0 0.0
2020-Aug-08 07:54N 28°30' W 016°10'0 0.0
2020-Aug-08 04:49N 28°30' W 016°10'0 0.1
2020-Aug-08 03:58N 28°30' W 016°10'0 0.0
2020-Aug-08 02:58N 28°30' W 016°10'0 0.0
2020-Aug-07 23:57N 28°30' W 016°10'0 0.0
2020-Aug-07 22:00N 28°30' W 016°10'0 0.0
2020-Aug-07 19:09N 28°30' W 016°10'4 2.5
2020-Aug-07 17:30N 28°28' W 016°14'0 0.0
2020-Aug-07 16:27N 28°28' W 016°14'0 0.0
2020-Aug-07 13:53N 28°28' W 016°14'0 0.0
2020-Aug-07 12:58N 28°28' W 016°14'0 0.0
2020-Aug-07 12:30N 28°28' W 016°14'0 0.0
2020-Aug-07 10:23N 28°28' W 016°14'0 0.0
2020-Aug-07 09:56N 28°28' W 016°14'2 0.6
2020-Aug-07 06:30N 28°28' W 016°12'8 5.4
2020-Aug-07 05:00N 28°22' W 016°06'2 3.2
2020-Aug-07 04:30N 28°21' W 016°04'1 1.2
2020-Aug-07 04:00N 28°21' W 016°04'1 1.7
2020-Aug-07 03:29N 28°22' W 016°04'12 4.8
2020-Aug-07 01:01N 28°28' W 015°52'11 7.4
2020-Aug-06 23:30N 28°37' W 015°44'10 4.9
2020-Aug-06 21:31N 28°39' W 015°33'10 6.6
2020-Aug-06 20:01N 28°33' W 015°42'25 6.2
2020-Aug-06 16:00N 28°30' W 016°10'0 0.1
2020-Aug-06 13:10N 28°30' W 016°10'0 0.0
2020-Aug-06 05:40N 28°30' W 016°10'0 0.0
2020-Aug-06 04:25N 28°30' W 016°10'0 0.0
2020-Aug-05 19:53N 28°30' W 016°10'0 0.1
2020-Aug-05 19:30N 28°30' W 016°10'0 0.0
2020-Aug-05 12:35N 28°30' W 016°10'0 0.0
2020-Aug-05 09:16N 28°30' W 016°10'0 0.0
2020-Aug-05 04:18N 28°30' W 016°10'0 0.0
2020-Aug-04 22:27N 28°30' W 016°10'0 0.0
2020-Aug-04 20:39N 28°30' W 016°10'0 0.0
2020-Aug-04 19:58N 28°30' W 016°10'0 0.0
2020-Aug-04 10:41N 28°30' W 016°10'0 0.0
2020-Aug-04 09:26N 28°30' W 016°10'0 0.0
2020-Aug-04 04:49N 28°30' W 016°10'0 0.1
2020-Aug-04 03:54N 28°30' W 016°10'0 0.0
2020-Aug-04 02:59N 28°30' W 016°10'0 0.0
2020-Aug-03 17:28N 28°30' W 016°10'0 0.0
2020-Aug-03 15:16N 28°30' W 016°10'0 0.0
2020-Aug-03 12:51N 28°30' W 016°10'0 0.0
2020-Aug-03 10:50N 28°30' W 016°10'0 0.0
2020-Aug-03 09:35N 28°30' W 016°10'0 0.0
2020-Aug-03 06:51N 28°30' W 016°10'0 0.0
2020-Aug-02 17:02N 28°30' W 016°10'0 0.1
2020-Aug-02 16:28N 28°30' W 016°10'0 0.0
2020-Aug-02 13:22N 28°30' W 016°10'0 0.1
2020-Aug-02 12:58N 28°30' W 016°10'0 0.0
2020-Aug-02 12:28N 28°30' W 016°10'0 0.0
2020-Aug-02 10:22N 28°30' W 016°10'0 0.0
2020-Aug-02 09:52N 28°30' W 016°10'0 0.0
2020-Aug-02 06:27N 28°30' W 016°10'0 0.0
2020-Aug-02 03:00N 28°30' W 016°10'0 0.0
2020-Aug-02 01:48N 28°30' W 016°10'0 0.0
2020-Aug-02 00:38N 28°30' W 016°10'0 0.0
2020-Aug-01 15:59N 28°30' W 016°10'0 0.0
2020-Aug-01 13:40N 28°30' W 016°10'0 0.0
2020-Aug-01 11:27N 28°30' W 016°10'0 0.0
2020-Aug-01 09:25N 28°30' W 016°10'0 0.0
2020-Aug-01 05:27N 28°30' W 016°10'0 0.0
2020-Aug-01 02:36N 28°30' W 016°10'0 0.1
2020-Aug-01 02:30N 28°30' W 016°10'0 0.0
2020-Jul-31 21:08N 28°30' W 016°10'0 0.0
2020-Jul-31 17:51N 28°30' W 016°10'0 0.0
2020-Jul-31 11:49N 28°30' W 016°10'0 0.0
2020-Jul-31 09:54N 28°30' W 016°10'0 0.0
2020-Jul-31 06:30N 28°30' W 016°10'0 0.1
2020-Jul-31 06:00N 28°30' W 016°10'0 0.0
2020-Jul-31 04:59N 28°30' W 016°10'0 0.0
2020-Jul-31 03:58N 28°30' W 016°10'0 0.0
2020-Jul-31 00:58N 28°30' W 016°10'0 0.1
2020-Jul-31 00:28N 28°30' W 016°10'0 0.0
2020-Jul-30 22:30N 28°30' W 016°10'0 0.0
2020-Jul-30 21:30N 28°30' W 016°10'0 0.0
2020-Jul-30 20:29N 28°30' W 016°10'  

Dump ship's entire track history